Time;durP1;ratioP1;P1;durP2;ratioP2;P2;SDS_P1;SDS_P2;PMS_P1;PMS_P2;Temp;Humidity;BMP_temperature;BMP_pressure;BME280_temperature;BME280_humidity;BME280_pressure;Samples;Min_cycle;Max_cycle;Signal;HPM_P1;HPM_P2
2021/06/13 00:00:29;;;;;;;12.70;5.95;;;;;;;14.95;58.80;100610.66;5029568;28;20034;-67
2021/06/13 00:02:54;;;;;;;12.73;5.68;;;;;;;14.88;59.38;100603.94;5027020;28;20033;-68
2021/06/13 00:05:20;;;;;;;15.25;5.63;;;;;;;14.86;59.10;100608.47;5029010;28;20029;-68
2021/06/13 00:07:45;;;;;;;14.95;5.60;;;;;;;14.85;59.38;100605.94;5029017;28;20040;-68
2021/06/13 00:10:13;;;;;;;14.63;5.57;;;;;;;14.79;59.85;100600.00;5029533;28;20033;-68
2021/06/13 00:12:39;;;;;;;13.98;5.30;;;;;;;14.81;59.36;100605.22;5029552;28;20112;-68
2021/06/13 00:15:07;;;;;;;17.02;5.50;;;;;;;14.76;59.67;100602.81;5029476;28;20117;-68
2021/06/13 00:17:33;;;;;;;8.85;4.75;;;;;;;14.73;59.59;100600.31;5029191;28;20547;-68
2021/06/13 00:19:59;;;;;;;14.27;6.15;;;;;;;14.69;60.15;100605.88;5029018;28;20052;-68
2021/06/13 00:22:24;;;;;;;7.72;5.15;;;;;;;14.67;59.97;100607.75;5029276;28;20049;-68
2021/06/13 00:24:49;;;;;;;17.27;6.95;;;;;;;14.66;59.94;100608.69;5029159;28;20061;-68
2021/06/13 00:27:15;;;;;;;13.75;5.10;;;;;;;14.59;60.35;100600.19;5028799;28;20033;-69
2021/06/13 00:29:40;;;;;;;16.98;6.35;;;;;;;14.59;60.62;100602.84;5029717;28;20116;-68
2021/06/13 00:32:06;;;;;;;12.73;6.15;;;;;;;14.53;60.35;100600.50;5029218;28;20167;-69
2021/06/13 00:34:31;;;;;;;15.20;5.95;;;;;;;14.50;60.51;100598.00;5027806;28;20032;-68
2021/06/13 00:36:57;;;;;;;18.67;6.40;;;;;;;14.51;60.70;100597.06;5028387;28;20136;-68
2021/06/13 00:39:22;;;;;;;13.00;5.82;;;;;;;14.47;61.00;100598.16;5029040;28;20477;-68
2021/06/13 00:41:48;;;;;;;10.30;5.03;;;;;;;14.45;60.96;100606.22;5028978;28;20447;-68
2021/06/13 00:44:13;;;;;;;13.43;6.15;;;;;;;14.44;61.12;100603.63;5029900;28;20040;-68
2021/06/13 00:46:40;;;;;;;9.77;5.50;;;;;;;14.39;61.68;100599.41;5028847;28;20064;-68
2021/06/13 00:49:07;;;;;;;14.10;8.20;;;;;;;14.37;61.77;100597.78;5029178;28;20076;-69
2021/06/13 00:51:32;;;;;;;13.73;5.45;;;;;;;14.29;61.90;100603.47;5028990;28;20037;-69
2021/06/13 00:53:58;;;;;;;13.73;5.75;;;;;;;14.22;61.50;100607.38;5032674;28;20401;-69
2021/06/13 00:56:23;;;;;;;13.50;6.22;;;;;;;14.13;62.62;100599.91;5032687;28;20029;-68
2021/06/13 00:58:49;;;;;;;11.73;6.53;;;;;;;13.99;63.24;100597.94;5032426;28;20033;-68
2021/06/13 01:01:15;;;;;;;13.43;5.55;;;;;;;13.85;63.56;100595.97;5007394;28;20068;-69
2021/06/13 01:03:42;;;;;;;14.15;6.63;;;;;;;13.73;64.35;100602.78;5032669;28;20461;-69
2021/06/13 01:06:08;;;;;;;10.15;6.38;;;;;;;13.69;64.83;100600.34;5035722;28;20026;-68
2021/06/13 01:08:36;;;;;;;17.10;6.43;;;;;;;13.61;64.71;100594.53;5034141;28;20095;-68
2021/06/13 01:11:15;;;;;;;10.85;6.07;;;;;;;13.52;65.09;100598.50;5030903;28;20451;-68
2021/06/13 01:14:04;;;;;;;11.82;5.95;;;;;;;13.43;65.42;100593.66;5032291;28;20454;-67
2021/06/13 01:16:52;;;;;;;18.77;7.30;;;;;;;13.26;66.41;100592.63;5031955;28;20039;-68
2021/06/13 01:19:24;;;;;;;9.90;5.13;;;;;;;13.06;66.50;100592.72;5031956;28;20112;-68
2021/06/13 01:21:59;;;;;;;11.13;7.60;;;;;;;13.01;67.16;100598.22;5031988;28;20044;-68
2021/06/13 01:24:37;;;;;;;11.25;5.95;;;;;;;12.98;66.48;100590.41;5033159;28;20037;-68
2021/06/13 01:27:17;;;;;;;14.98;5.55;;;;;;;12.93;66.57;100581.84;5035202;28;20029;-69
2021/06/13 01:29:48;;;;;;;9.52;6.03;;;;;;;12.87;67.20;100577.69;5031752;28;20331;-68
2021/06/13 01:32:18;;;;;;;13.93;5.78;;;;;;;12.71;67.64;100581.97;5030349;28;20120;-68
2021/06/13 01:34:48;;;;;;;10.57;6.45;;;;;;;12.62;68.26;100588.50;5031753;28;20516;-68
2021/06/13 01:37:18;;;;;;;11.30;5.20;;;;;;;12.53;68.28;100581.00;5031517;28;20064;-68
2021/06/13 01:39:46;;;;;;;13.02;5.70;;;;;;;12.48;68.28;100585.66;5031290;28;20142;-68
2021/06/13 01:42:13;;;;;;;16.25;6.00;;;;;;;12.43;68.17;100585.00;5031548;28;20520;-68
2021/06/13 01:44:41;;;;;;;14.48;6.43;;;;;;;12.37;68.89;100585.25;5031717;28;20485;-68
2021/06/13 01:47:08;;;;;;;12.35;6.28;;;;;;;12.30;69.06;100592.56;5032059;28;20029;-68
2021/06/13 01:49:37;;;;;;;17.60;7.30;;;;;;;12.22;69.11;100595.56;5031511;28;20102;-68
2021/06/13 01:52:03;;;;;;;12.75;5.50;;;;;;;12.17;69.60;100592.25;5031646;28;20527;-68
2021/06/13 01:54:32;;;;;;;13.75;7.57;;;;;;;12.06;69.60;100588.34;5029896;28;20026;-69
2021/06/13 01:56:58;;;;;;;11.05;7.13;;;;;;;11.96;70.04;100586.13;5031338;28;20068;-68
2021/06/13 01:59:24;;;;;;;18.02;7.68;;;;;;;11.97;70.32;100589.59;5031271;28;20041;-69
2021/06/13 02:01:51;;;;;;;14.43;6.70;;;;;;;11.93;69.76;100580.09;5031434;28;20052;-68
2021/06/13 02:04:17;;;;;;;9.52;5.57;;;;;;;11.90;69.88;100591.63;5030777;28;20037;-69
2021/06/13 02:06:47;;;;;;;8.93;6.57;;;;;;;11.88;70.38;100593.47;5030170;28;20518;-68
2021/06/13 02:09:14;;;;;;;10.80;6.97;;;;;;;11.74;70.72;100586.13;5031585;28;20033;-69
2021/06/13 02:11:41;;;;;;;11.20;6.13;;;;;;;11.66;71.03;100589.97;5031213;28;20026;-69
2021/06/13 02:14:08;;;;;;;13.77;7.53;;;;;;;11.58;71.29;100587.66;5031475;28;20045;-69
2021/06/13 02:16:34;;;;;;;11.20;6.55;;;;;;;11.54;71.07;100592.22;5030694;28;20108;-69
2021/06/13 02:19:00;;;;;;;8.50;6.05;;;;;;;11.48;71.46;100591.59;5031675;28;20034;-69
2021/06/13 02:21:27;;;;;;;15.15;6.78;;;;;;;11.40;71.74;100586.63;5030988;28;20037;-69
2021/06/13 02:23:54;;;;;;;13.45;6.15;;;;;;;11.39;71.64;100585.75;5031337;28;20040;-69
2021/06/13 02:26:20;;;;;;;12.43;6.60;;;;;;;11.44;71.33;100585.56;5030911;28;20036;-69
2021/06/13 02:28:51;;;;;;;11.20;5.97;;;;;;;11.44;71.12;100587.34;5031191;28;20037;-69
2021/06/13 02:31:19;;;;;;;13.85;6.70;;;;;;;11.43;71.51;100598.84;5031126;28;20032;-69
2021/06/13 02:33:46;;;;;;;9.85;6.93;;;;;;;11.38;71.98;100601.66;5030914;28;20042;-68
2021/06/13 02:36:13;;;;;;;12.30;6.60;;;;;;;11.30;71.80;100596.69;5030637;28;20053;-68
2021/06/13 02:38:38;;;;;;;10.70;6.43;;;;;;;11.31;71.75;100595.75;5030631;28;20033;-68
2021/06/13 02:41:04;;;;;;;12.23;6.28;;;;;;;11.30;71.48;100601.97;5031094;28;20067;-69
2021/06/13 02:43:30;;;;;;;13.90;6.40;;;;;;;11.31;71.68;100597.53;5031241;28;20116;-69
2021/06/13 02:45:56;;;;;;;14.45;6.95;;;;;;;11.28;71.12;100598.50;5030261;28;20539;-68
2021/06/13 02:48:21;;;;;;;12.20;7.13;;;;;;;11.20;71.62;100595.31;5030708;28;20033;-69
2021/06/13 02:50:47;;;;;;;9.82;6.13;;;;;;;11.14;71.74;100601.69;5030774;28;20042;-68
2021/06/13 02:53:42;;;;;;;8.00;5.35;;;;;;;11.04;71.78;100600.31;5030718;28;20033;-70
2021/06/13 02:56:38;;;;;;;11.75;6.22;;;;;;;10.95;72.24;100609.44;5030231;28;20033;-69
2021/06/13 02:59:10;;;;;;;14.90;5.93;;;;;;;10.92;72.33;100603.41;5030731;28;20029;-69
2021/06/13 03:01:37;;;;;;;11.15;7.35;;;;;;;10.86;72.36;100612.44;5030424;28;20460;-68
2021/06/13 03:04:04;;;;;;;11.43;6.68;;;;;;;10.79;72.37;100610.94;5030355;28;20034;-68
2021/06/13 03:06:31;;;;;;;9.63;6.50;;;;;;;10.67;73.46;100614.00;5029776;28;20083;-69
2021/06/13 03:08:57;;;;;;;12.63;6.97;;;;;;;10.66;72.95;100607.88;5030463;28;20056;-69
2021/06/13 03:11:24;;;;;;;11.15;6.43;;;;;;;10.64;72.89;100604.44;5030297;28;20056;-68
2021/06/13 03:13:51;;;;;;;18.13;8.20;;;;;;;10.48;73.21;100604.16;5030325;28;20065;-69
2021/06/13 03:16:17;;;;;;;13.40;7.70;;;;;;;10.41;73.39;100604.38;5029157;28;20036;-69
2021/06/13 03:18:47;;;;;;;15.20;7.15;;;;;;;10.43;73.28;100611.31;5030344;28;20132;-70
2021/06/13 03:21:13;;;;;;;13.38;7.07;;;;;;;10.51;73.28;100611.09;5029895;28;20068;-68
2021/06/13 03:23:40;;;;;;;15.13;5.55;;;;;;;10.55;72.95;100617.94;5029638;28;20038;-68
2021/06/13 03:26:06;;;;;;;10.63;5.82;;;;;;;10.58;72.71;100614.34;5030252;28;20152;-68
2021/06/13 03:28:33;;;;;;;14.20;7.90;;;;;;;10.56;72.81;100611.78;5029753;28;20505;-68
2021/06/13 03:31:00;;;;;;;8.27;5.35;;;;;;;10.57;72.94;100624.03;5029528;28;20044;-68
2021/06/13 03:33:28;;;;;;;16.55;6.80;;;;;;;10.55;72.91;100630.28;5030555;28;20053;-68
2021/06/13 03:35:56;;;;;;;8.82;6.03;;;;;;;10.51;72.74;100624.28;5031693;28;20124;-68
2021/06/13 03:38:22;;;;;;;12.75;6.05;;;;;;;10.51;72.66;100622.47;5030491;28;20026;-68
2021/06/13 03:40:49;;;;;;;15.60;8.32;;;;;;;10.52;73.18;100623.34;5028150;28;20045;-68
2021/06/13 03:43:15;;;;;;;11.93;7.22;;;;;;;10.50;73.02;100631.28;5029177;28;20138;-67
2021/06/13 03:45:41;;;;;;;16.15;6.05;;;;;;;10.47;72.99;100627.91;5029509;28;20114;-68
2021/06/13 03:48:08;;;;;;;12.68;6.25;;;;;;;10.41;72.97;100630.75;5030778;28;20445;-68
2021/06/13 03:50:34;;;;;;;10.57;6.80;;;;;;;10.38;72.81;100629.09;5030135;28;20079;-68
2021/06/13 03:53:01;;;;;;;11.70;5.72;;;;;;;10.38;73.18;100637.00;5030003;28;20037;-68
2021/06/13 03:55:30;;;;;;;12.52;6.97;;;;;;;10.37;73.67;100645.81;5030209;28;20056;-68
2021/06/13 03:57:57;;;;;;;12.73;7.13;;;;;;;10.31;73.31;100641.63;5029780;28;20037;-68
2021/06/13 04:00:25;;;;;;;11.60;6.25;;;;;;;10.36;73.14;100638.84;5029837;28;20034;-68
2021/06/13 04:02:50;;;;;;;10.25;6.38;;;;;;;10.38;73.57;100636.13;5029314;28;20041;-68
2021/06/13 04:05:18;;;;;;;10.80;7.05;;;;;;;10.39;73.53;100641.38;5029253;28;20120;-67
2021/06/13 04:07:44;;;;;;;9.57;6.70;;;;;;;10.41;72.99;100646.56;5029055;28;20052;-68
2021/06/13 04:10:12;;;;;;;11.25;6.93;;;;;;;10.39;73.54;100649.28;5028920;28;20029;-68
2021/06/13 04:12:38;;;;;;;12.40;8.43;;;;;;;10.43;73.42;100653.50;5029615;28;20033;-68
2021/06/13 04:15:05;;;;;;;8.88;6.45;;;;;;;10.49;73.13;100655.09;5028971;28;20044;-68
2021/06/13 04:17:33;;;;;;;14.02;7.50;;;;;;;10.49;73.43;100653.31;5028687;28;20129;-68
2021/06/13 04:20:01;;;;;;;15.70;7.45;;;;;;;10.55;73.14;100654.00;5029235;28;20108;-68
2021/06/13 04:22:27;;;;;;;13.48;7.90;;;;;;;10.57;73.12;100647.75;5029127;28;20026;-68
2021/06/13 04:24:54;;;;;;;10.75;7.90;;;;;;;10.60;72.96;100657.34;5029292;28;20044;-69
2021/06/13 04:27:22;;;;;;;15.18;6.68;;;;;;;10.62;72.97;100661.66;5030379;28;20040;-68
2021/06/13 04:29:49;;;;;;;8.27;6.95;;;;;;;10.71;72.72;100663.09;5033414;28;20087;-69
2021/06/13 04:32:15;;;;;;;12.30;7.28;;;;;;;10.81;72.55;100659.22;5035296;28;20064;-67
2021/06/13 04:34:40;;;;;;;13.80;7.00;;;;;;;10.87;72.92;100666.91;5034655;28;20037;-69
2021/06/13 04:37:07;;;;;;;10.60;7.25;;;;;;;10.90;72.40;100666.81;5033514;28;20075;-70
2021/06/13 04:39:34;;;;;;;10.95;6.72;;;;;;;10.98;72.43;100673.56;5033285;28;20033;-68
2021/06/13 04:42:02;;;;;;;10.07;6.82;;;;;;;11.05;72.16;100686.50;5032959;28;20057;-68
2021/06/13 04:44:28;;;;;;;11.48;8.25;;;;;;;11.12;71.97;100690.63;5033226;28;20413;-68
2021/06/13 04:46:53;;;;;;;10.15;7.28;;;;;;;11.11;72.62;100686.25;5033108;28;20058;-68
2021/06/13 04:49:19;;;;;;;14.40;6.70;;;;;;;11.21;72.02;100686.78;5033413;28;20157;-69
2021/06/13 04:51:46;;;;;;;12.80;8.18;;;;;;;11.33;71.70;100690.72;5033913;28;20132;-67
2021/06/13 04:54:19;;;;;;;13.57;7.80;;;;;;;11.44;71.25;100695.59;5036645;28;20525;-68
2021/06/13 04:57:05;;;;;;;13.18;8.77;;;;;;;11.56;71.50;100700.41;5037824;28;20509;-68
2021/06/13 04:59:30;;;;;;;14.40;7.95;;;;;;;11.67;70.71;100692.09;5037647;28;20025;-69
2021/06/13 05:01:55;;;;;;;11.63;7.75;;;;;;;11.80;70.67;100685.38;5035872;28;20092;-68
2021/06/13 05:04:21;;;;;;;14.00;7.93;;;;;;;12.01;70.44;100696.88;5036475;28;20511;-68
2021/06/13 05:06:46;;;;;;;15.07;7.85;;;;;;;12.21;70.09;100691.66;5036201;28;20034;-69
2021/06/13 05:09:12;;;;;;;12.57;7.22;;;;;;;12.46;68.82;100695.94;5036642;28;20400;-68
2021/06/13 05:11:38;;;;;;;27.52;8.40;;;;;;;12.74;68.00;100694.72;5035388;28;20036;-68
2021/06/13 05:14:04;;;;;;;13.73;7.88;;;;;;;13.03;66.44;100702.25;5033857;28;20037;-69
2021/06/13 05:16:30;;;;;;;12.77;8.20;;;;;;;13.28;65.61;100709.97;5032398;28;20037;-69
2021/06/13 05:18:55;;;;;;;15.48;9.85;;;;;;;13.46;65.45;100713.56;5033035;28;20041;-69
2021/06/13 05:21:21;;;;;;;14.32;8.88;;;;;;;13.62;65.04;100718.16;5031770;28;20172;-68
2021/06/13 05:23:46;;;;;;;15.95;9.07;;;;;;;13.77;64.42;100717.44;5031193;28;20172;-69
2021/06/13 05:26:12;;;;;;;13.02;8.48;;;;;;;13.95;64.46;100718.31;5031214;28;20503;-69
2021/06/13 05:28:37;;;;;;;19.55;10.13;;;;;;;14.10;63.68;100722.91;5033184;28;20037;-69
2021/06/13 05:31:02;;;;;;;13.65;10.10;;;;;;;14.22;62.90;100729.38;5033976;28;20040;-68
2021/06/13 05:33:28;;;;;;;23.38;11.30;;;;;;;14.36;62.64;100724.25;5035029;28;20033;-68
2021/06/13 05:35:53;;;;;;;23.80;11.20;;;;;;;14.51;62.46;100725.28;5034571;28;20045;-68
2021/06/13 05:38:19;;;;;;;17.95;7.82;;;;;;;14.92;61.41;100734.75;5032509;28;20121;-69
2021/06/13 05:40:46;;;;;;;17.90;9.57;;;;;;;15.24;59.83;100717.13;5033067;28;20045;-68
2021/06/13 05:43:12;;;;;;;22.17;10.20;;;;;;;15.60;58.53;100738.19;5032992;28;20095;-69
2021/06/13 05:45:39;;;;;;;23.50;11.63;;;;;;;15.95;57.96;100745.16;5033025;28;20040;-68
2021/06/13 05:48:06;;;;;;;17.50;9.77;;;;;;;16.15;57.04;100742.25;5032211;28;20036;-67
2021/06/13 05:50:32;;;;;;;21.00;9.48;;;;;;;16.26;56.63;100752.25;5032260;28;20037;-67
2021/06/13 05:52:58;;;;;;;16.48;9.55;;;;;;;16.44;55.89;100745.00;5031180;28;20069;-67
2021/06/13 05:55:24;;;;;;;13.88;8.60;;;;;;;16.58;55.36;100747.72;5031276;28;20121;-68
2021/06/13 05:57:49;;;;;;;21.55;9.55;;;;;;;16.68;54.61;100751.53;5031476;28;20508;-68
2021/06/13 06:00:20;;;;;;;17.27;8.82;;;;;;;16.73;54.32;100746.81;5031732;28;20239;-69
2021/06/13 06:02:46;;;;;;;17.20;9.82;;;;;;;16.87;54.41;100750.50;5033888;28;20045;-68
2021/06/13 06:05:14;;;;;;;21.45;10.23;;;;;;;17.06;53.47;100744.91;5035289;28;20034;-68
2021/06/13 06:07:40;;;;;;;20.75;9.82;;;;;;;17.22;53.16;100748.34;5031395;28;20451;-69
2021/06/13 06:10:07;;;;;;;17.77;10.43;;;;;;;17.39;52.63;100748.16;5032319;28;20101;-68
2021/06/13 06:12:33;;;;;;;18.40;9.70;;;;;;;17.48;52.24;100746.75;5031422;28;20025;-68
2021/06/13 06:14:59;;;;;;;12.85;8.13;;;;;;;17.50;52.75;100754.63;5031265;28;20034;-68
2021/06/13 06:17:24;;;;;;;12.95;9.13;;;;;;;17.55;52.28;100752.56;5031218;28;20042;-67
2021/06/13 06:19:50;;;;;;;15.45;9.35;;;;;;;17.72;51.75;100748.78;5029076;28;20677;-68
2021/06/13 06:22:15;;;;;;;15.57;9.63;;;;;;;17.80;52.16;100751.88;5031001;28;20492;-69
2021/06/13 06:24:41;;;;;;;16.85;9.25;;;;;;;17.87;51.92;100753.19;5031039;28;20045;-69
2021/06/13 06:27:06;;;;;;;17.55;9.55;;;;;;;18.07;50.63;100749.25;5030785;28;20044;-69
2021/06/13 06:29:32;;;;;;;22.48;9.25;;;;;;;18.09;50.77;100751.78;5031169;28;20030;-69
2021/06/13 06:31:58;;;;;;;17.67;9.75;;;;;;;18.08;50.42;100748.28;5030061;28;20114;-69
2021/06/13 06:34:23;;;;;;;20.60;9.20;;;;;;;17.95;50.64;100758.03;5030816;28;20029;-69
2021/06/13 06:36:49;;;;;;;17.63;8.63;;;;;;;18.17;49.80;100749.50;5030388;28;20034;-69
2021/06/13 06:39:16;;;;;;;16.52;9.18;;;;;;;18.26;49.89;100756.03;5030561;28;20084;-69
2021/06/13 06:41:42;;;;;;;14.77;8.32;;;;;;;18.38;49.45;100756.06;5029955;28;20041;-68
2021/06/13 06:44:09;;;;;;;20.50;9.65;;;;;;;18.49;48.22;100762.53;5030919;28;20040;-68
2021/06/13 06:46:34;;;;;;;25.05;8.70;;;;;;;18.27;49.54;100763.94;5030156;28;20072;-68
2021/06/13 06:49:00;;;;;;;19.52;9.02;;;;;;;18.32;48.99;100767.16;5030608;28;20037;-69
2021/06/13 06:51:27;;;;;;;18.70;8.60;;;;;;;18.64;48.58;100762.34;5030514;28;20433;-69
2021/06/13 06:53:53;;;;;;;19.15;8.07;;;;;;;18.96;47.23;100770.03;5030343;28;20582;-69
2021/06/13 06:56:19;;;;;;;20.27;9.20;;;;;;;19.06;46.45;100768.41;5030187;28;20091;-69
2021/06/13 06:58:44;;;;;;;16.15;8.32;;;;;;;19.02;46.74;100768.75;5030397;28;20037;-67
2021/06/13 07:01:09;;;;;;;17.33;9.05;;;;;;;18.59;47.96;100772.47;5030732;28;20037;-68
2021/06/13 07:03:35;;;;;;;22.15;8.65;;;;;;;18.57;47.99;100777.06;5030369;28;20056;-68
2021/06/13 07:06:00;;;;;;;15.43;8.45;;;;;;;18.38;48.62;100780.09;5029931;28;20044;-67
2021/06/13 07:08:25;;;;;;;15.60;7.97;;;;;;;18.46;48.00;100784.97;5030156;28;20079;-67
2021/06/13 07:10:51;;;;;;;19.50;9.35;;;;;;;18.44;47.96;100781.53;5030007;28;20108;-67
2021/06/13 07:13:16;;;;;;;16.98;9.05;;;;;;;18.53;48.52;100780.03;5030687;28;20033;-68
2021/06/13 07:15:41;;;;;;;17.15;8.23;;;;;;;18.83;47.86;100788.72;5030071;28;20045;-68
2021/06/13 07:18:07;;;;;;;20.83;10.85;;;;;;;18.43;48.16;100783.34;5030421;28;20488;-67
2021/06/13 07:20:32;;;;;;;20.83;7.97;;;;;;;18.07;49.41;100773.25;5030015;28;20037;-69
2021/06/13 07:22:57;;;;;;;20.02;9.95;;;;;;;18.52;48.25;100787.19;5029478;28;20068;-67
2021/06/13 07:25:23;;;;;;;19.38;9.65;;;;;;;18.62;47.67;100787.44;5029440;28;20033;-67
2021/06/13 07:27:49;;;;;;;15.98;8.80;;;;;;;18.22;48.54;100795.41;5029620;28;20041;-68
2021/06/13 07:30:16;;;;;;;15.88;8.02;;;;;;;18.59;47.06;100793.00;5029875;28;20034;-68
2021/06/13 07:32:42;;;;;;;17.77;8.10;;;;;;;19.00;46.20;100792.03;5029795;28;20053;-68
2021/06/13 07:35:09;;;;;;;15.35;7.55;;;;;;;19.59;45.16;100788.84;5030260;28;20485;-67
2021/06/13 07:37:35;;;;;;;13.60;7.22;;;;;;;19.71;43.77;100788.00;5029316;28;20033;-68
2021/06/13 07:40:00;;;;;;;16.70;7.40;;;;;;;19.66;43.86;100793.63;5029440;28;20045;-68
2021/06/13 07:42:26;;;;;;;16.40;6.15;;;;;;;20.71;41.84;100792.25;5029468;28;20034;-68
2021/06/13 07:44:51;;;;;;;15.30;7.90;;;;;;;21.37;40.17;100794.38;5029685;28;20041;-68
2021/06/13 07:47:18;;;;;;;14.00;6.90;;;;;;;21.74;39.89;100796.88;5028861;28;20565;-68
2021/06/13 07:49:44;;;;;;;14.63;6.97;;;;;;;21.97;39.19;100784.25;5028480;28;20030;-68
2021/06/13 07:52:09;;;;;;;14.25;7.15;;;;;;;22.14;38.80;100790.94;5029925;28;20036;-68
2021/06/13 07:54:35;;;;;;;20.02;8.48;;;;;;;22.30;38.29;100791.44;5029327;28;20094;-68
2021/06/13 07:57:00;;;;;;;11.43;7.00;;;;;;;21.81;38.42;100798.09;5029176;28;20048;-68
2021/06/13 07:59:25;;;;;;;13.45;7.30;;;;;;;21.66;38.99;100797.50;5029192;28;20034;-68
2021/06/13 08:01:51;;;;;;;12.82;6.43;;;;;;;21.79;39.14;100800.03;5028426;28;20038;-68
2021/06/13 08:04:17;;;;;;;27.77;10.45;;;;;;;21.92;38.79;100798.06;5029134;28;20057;-68
2021/06/13 08:06:42;;;;;;;12.30;7.25;;;;;;;21.73;39.52;100808.56;5028969;28;20037;-68
2021/06/13 08:09:07;;;;;;;13.52;7.63;;;;;;;21.81;39.56;100803.47;5029499;28;20512;-68
2021/06/13 08:11:33;;;;;;;13.77;7.40;;;;;;;22.20;38.51;100804.78;5029566;28;20039;-68
2021/06/13 08:13:58;;;;;;;13.55;7.70;;;;;;;22.21;38.59;100805.63;5029316;28;20049;-68
2021/06/13 08:16:24;;;;;;;9.82;6.70;;;;;;;22.39;37.97;100804.09;5029091;28;20034;-68
2021/06/13 08:18:49;;;;;;;17.55;8.52;;;;;;;22.40;36.79;100805.81;5028601;28;20044;-69
2021/06/13 08:21:15;;;;;;;11.27;6.82;;;;;;;22.33;37.75;100795.72;5028886;28;20037;-67
2021/06/13 08:23:40;;;;;;;14.75;6.75;;;;;;;22.34;37.16;100795.56;5029653;28;20033;-68
2021/06/13 08:26:05;;;;;;;11.20;6.80;;;;;;;22.91;35.77;100782.72;5029038;28;20076;-68
2021/06/13 08:28:31;;;;;;;12.25;6.53;;;;;;;22.89;35.54;100782.88;5027832;28;20107;-67
2021/06/13 08:30:56;;;;;;;13.23;6.35;;;;;;;22.68;35.90;100780.16;5029284;28;20111;-68
2021/06/13 08:33:23;;;;;;;15.55;6.88;;;;;;;22.87;35.71;100786.69;5028065;28;20046;-68
2021/06/13 08:35:49;;;;;;;15.00;7.00;;;;;;;22.73;36.04;100783.31;5030349;28;20030;-68
2021/06/13 08:38:14;;;;;;;11.65;7.90;;;;;;;22.53;36.55;100784.16;5029107;28;20060;-68
2021/06/13 08:40:40;;;;;;;13.93;6.38;;;;;;;22.43;35.96;100780.53;5029610;28;20038;-68
2021/06/13 08:43:06;;;;;;;19.05;7.70;;;;;;;22.65;36.10;100782.28;5028916;28;20041;-68
2021/06/13 08:45:33;;;;;;;15.90;7.55;;;;;;;22.28;37.03;100782.66;5028505;28;20037;-68
2021/06/13 08:47:59;;;;;;;13.15;8.40;;;;;;;22.07;37.53;100791.44;5028769;28;20041;-69
2021/06/13 08:50:26;;;;;;;17.65;7.28;;;;;;;22.20;37.50;100785.09;5027670;28;20026;-69
2021/06/13 08:52:52;;;;;;;16.10;7.13;;;;;;;22.33;37.19;100780.44;5028979;28;20034;-67
2021/06/13 08:55:19;;;;;;;14.02;7.32;;;;;;;22.35;36.98;100783.84;5028777;28;20039;-69
2021/06/13 08:57:46;;;;;;;14.57;7.63;;;;;;;22.41;36.73;100779.78;5028916;28;20038;-68
2021/06/13 09:00:13;;;;;;;13.90;7.00;;;;;;;22.93;36.22;100787.00;5029009;28;20029;-67
2021/06/13 09:02:40;;;;;;;11.57;6.03;;;;;;;23.29;35.80;100782.16;5027948;28;20421;-68
2021/06/13 09:05:07;;;;;;;13.13;5.85;;;;;;;24.10;34.69;100787.63;5028836;28;20029;-69
2021/06/13 09:07:45;;;;;;;11.55;7.20;;;;;;;24.80;33.78;100787.53;5029013;28;20564;-68
2021/06/13 09:10:11;;;;;;;14.57;8.05;;;;;;;24.67;32.84;100789.69;5028972;28;20037;-67
2021/06/13 09:12:37;;;;;;;13.10;6.78;;;;;;;24.75;32.53;100787.97;5029436;28;20075;-68
2021/06/13 09:15:04;;;;;;;13.40;6.95;;;;;;;24.71;32.47;100797.34;5032414;28;20108;-69
2021/06/13 09:17:30;;;;;;;17.70;7.20;;;;;;;24.85;31.96;100779.88;5032198;28;20041;-68
2021/06/13 09:20:04;;;;;;;12.77;6.80;;;;;;;25.24;31.42;100783.38;5032196;28;20516;-70
2021/06/13 09:22:29;;;;;;;18.75;7.88;;;;;;;25.47;30.93;100785.72;5032244;28;20398;-68
2021/06/13 09:25:13;;;;;;;12.45;6.07;;;;;;;26.38;29.82;100779.56;5031043;28;20034;-69
2021/06/13 09:27:41;;;;;;;10.38;5.55;;;;;;;27.24;28.85;100778.97;5031332;28;20053;-69
2021/06/13 09:30:09;;;;;;;13.00;6.28;;;;;;;27.36;28.33;100770.41;5031421;28;20497;-68
2021/06/13 09:33:05;;;;;;;12.20;7.10;;;;;;;27.37;28.07;100782.13;5030628;28;20064;-69
2021/06/13 09:35:31;;;;;;;14.43;6.97;;;;;;;27.58;28.04;100769.00;5041786;28;20025;-69
2021/06/13 09:38:09;;;;;;;10.43;6.20;;;;;;;28.44;26.60;100767.94;5051785;28;20043;-68
2021/06/13 09:40:35;;;;;;;16.10;6.43;;;;;;;28.50;26.63;100765.59;5051655;28;20387;-69
2021/06/13 09:43:19;;;;;;;12.90;6.55;;;;;;;28.68;25.76;100774.44;5051383;28;20041;-68
2021/06/13 09:45:54;;;;;;;11.20;6.53;;;;;;;28.11;26.67;100771.59;5051385;28;20037;-69
2021/06/13 09:48:19;;;;;;;;;;;;;;;28.04;26.76;100769.56;5052347;28;20029;-68
2021/06/13 09:50:48;;;;;;;9.65;5.28;;;;;;;28.67;26.11;100776.31;5051683;28;19923;-68
2021/06/13 09:53:29;;;;;;;12.30;5.88;;;;;;;28.96;25.01;100779.50;5051726;28;20391;-70
2021/06/13 09:56:06;;;;;;;12.75;6.93;;;;;;;28.26;26.04;100775.38;5043282;28;20630;-69
2021/06/13 09:58:34;;;;;;;9.35;6.15;;;;;;;27.86;26.05;100776.94;5063396;28;20045;-69
2021/06/13 10:01:09;;;;;;;10.52;5.75;;;;;;;28.35;25.96;100776.22;5051574;28;20120;-68
2021/06/13 10:03:37;;;;;;;9.70;5.50;;;;;;;28.72;24.88;100766.78;5049995;28;20037;-67
2021/06/13 10:06:05;;;;;;;12.77;6.63;;;;;;;28.72;24.91;100770.34;5050892;28;20037;-68
2021/06/13 10:08:30;;;;;;;11.82;5.95;;;;;;;28.42;25.31;100771.81;5051322;28;20040;-67
2021/06/13 10:11:00;;;;;;;8.35;4.85;;;;;;;28.73;25.03;100780.19;5051582;28;20040;-69
2021/06/13 10:13:48;;;;;;;8.15;5.82;;;;;;;29.02;23.86;100776.97;5051385;28;20057;-68
2021/06/13 10:16:40;;;;;;;11.82;5.78;;;;;;;28.97;24.00;100770.34;5051068;28;20056;-68
2021/06/13 10:19:18;;;;;;;9.57;6.35;;;;;;;28.99;24.43;100765.59;5050087;28;20501;-69
2021/06/13 10:22:08;;;;;;;13.60;6.13;;;;;;;28.87;24.67;100757.81;5029233;28;20052;-69
2021/06/13 10:24:36;;;;;;;9.52;4.90;;;;;;;28.67;25.25;100761.88;5030457;28;20025;-69
2021/06/13 10:27:07;;;;;;;13.68;5.65;;;;;;;28.75;24.85;100763.72;5030722;28;20583;-70
2021/06/13 10:29:36;;;;;;;11.02;5.75;;;;;;;28.70;25.12;100761.56;5029662;28;20032;-68
2021/06/13 10:32:04;;;;;;;11.75;5.10;;;;;;;28.96;25.11;100764.06;5031226;28;20125;-68
2021/06/13 10:34:32;;;;;;;12.52;6.18;;;;;;;29.36;23.97;100773.16;5031387;28;20116;-69
2021/06/13 10:37:00;;;;;;;8.75;5.55;;;;;;;29.13;24.54;100766.78;5030275;28;20120;-68
2021/06/13 10:39:32;;;;;;;11.00;5.90;;;;;;;29.25;24.27;100768.13;5030767;28;20045;-67
2021/06/13 10:41:58;;;;;;;8.77;5.10;;;;;;;29.32;24.11;100764.53;5027208;28;20044;-69
2021/06/13 10:44:27;;;;;;;12.95;6.15;;;;;;;29.30;24.09;100760.31;5029051;28;20033;-69
2021/06/13 10:46:54;;;;;;;10.68;5.43;;;;;;;29.26;24.28;100764.38;5030446;28;20037;-69
2021/06/13 10:49:40;;;;;;;10.05;5.30;;;;;;;29.56;23.73;100759.19;5030956;28;20053;-70
2021/06/13 10:52:23;;;;;;;9.80;4.78;;;;;;;29.28;24.04;100754.19;5030745;28;20187;-69
2021/06/13 10:54:48;;;;;;;15.10;6.15;;;;;;;28.95;24.88;100759.66;5030278;28;20033;-69
2021/06/13 10:57:14;;;;;;;13.23;7.07;;;;;;;28.72;24.71;100762.19;5030416;28;20116;-69
2021/06/13 10:59:41;;;;;;;10.80;5.33;;;;;;;28.05;25.77;100763.09;5031259;28;20669;-68
2021/06/13 11:02:11;;;;;;;12.80;5.75;;;;;;;27.55;26.63;100771.19;5030536;28;20064;-69
2021/06/13 11:04:44;;;;;;;9.82;5.38;;;;;;;26.87;27.62;100766.50;5030858;28;20030;-69
2021/06/13 11:07:30;;;;;;;18.98;5.80;;;;;;;26.24;27.86;100765.59;5034598;28;20040;-68
2021/06/13 11:10:09;;;;;;;13.23;5.93;;;;;;;25.60;28.70;100759.25;5026455;28;20033;-68
2021/06/13 11:12:53;;;;;;;8.90;5.40;;;;;;;24.87;29.01;100763.56;5030731;28;20129;-69
2021/06/13 11:15:46;;;;;;;9.90;5.20;;;;;;;24.65;29.32;100762.84;5027521;28;20045;-69
2021/06/13 11:18:15;;;;;;;9.02;4.18;;;;;;;24.40;29.48;100759.69;5030158;28;20029;-69
2021/06/13 11:23:15;;;;;;;11.38;5.60;;;;;;;24.21;30.29;100767.75;5029471;28;20033;-68